Turkey City, Pennsylvania
Current Conditions -  °F | °C
As of 11:15 PM on Wednesday 17 Dec 2014 (Local Time) from KFKL Reporting Station
Overcast Overcast  
Wind Chill: 15°   Ceiling: 3300
Heat Index: 27°   Visibility: 6mi
Dew Point: 19°   Wind: 14mph
Humidity: 74%   Direction: 250°WSW
Pressure: 30.07"   Gusts: 17mph
Location:  41.19°N, 79.61°W
Report Text: KFKL 180415Z AUTO 25012G15KT 6SM FEW020 OVC033 M03/M07 A3007 RMK AO1
Loading
Personal Weather Stations






























Interactive Weather Map New forecast layout! Learn more

10-Day Weather Forecast

Advertisements
Track Severe Weather on mobile